createdAt,value
2022-12-27T00:01:12.334Z,8.00
2022-12-27T00:03:40.937Z,8.00
2022-12-27T00:06:10.666Z,8.10
2022-12-27T00:08:40.147Z,8.10
2022-12-27T00:11:11.877Z,8.20
2022-12-27T00:13:40.173Z,8.20
2022-12-27T00:16:11.020Z,8.20
2022-12-27T00:18:40.071Z,8.20
2022-12-27T00:21:09.732Z,8.20
2022-12-27T00:23:41.611Z,8.20
2022-12-27T00:26:12.329Z,8.20
2022-12-27T00:28:40.383Z,8.30
2022-12-27T00:31:09.617Z,8.30
2022-12-27T00:33:39.035Z,8.30
2022-12-27T00:36:10.016Z,8.20
2022-12-27T00:38:38.135Z,8.20
2022-12-27T00:41:08.360Z,8.20
2022-12-27T00:43:36.840Z,8.30
2022-12-27T00:46:05.627Z,8.20
2022-12-27T00:48:34.004Z,8.20
2022-12-27T00:51:04.792Z,8.20
2022-12-27T00:53:33.894Z,8.10
2022-12-27T00:56:02.046Z,8.10
2022-12-27T00:58:32.302Z,8.00
2022-12-27T01:01:07.811Z,8.00
2022-12-27T01:03:36.057Z,8.00
2022-12-27T01:06:08.077Z,8.00
2022-12-27T01:08:36.621Z,7.90
2022-12-27T01:11:05.867Z,7.90
2022-12-27T01:13:36.200Z,7.80
2022-12-27T01:16:10.193Z,7.80
2022-12-27T01:18:38.689Z,7.70
2022-12-27T01:21:07.943Z,7.60
2022-12-27T01:23:36.635Z,7.60
2022-12-27T01:26:06.428Z,7.60
2022-12-27T01:28:36.367Z,7.60
2022-12-27T01:31:07.037Z,7.50
2022-12-27T01:33:35.310Z,7.50
2022-12-27T01:36:10.614Z,7.50
2022-12-27T01:38:38.690Z,7.50
2022-12-27T01:41:26.854Z,7.50
2022-12-27T01:43:55.383Z,7.40
2022-12-27T01:46:23.896Z,7.40
2022-12-27T01:48:52.429Z,7.30
2022-12-27T01:51:20.600Z,7.20
2022-12-27T01:53:50.926Z,7.10
2022-12-27T01:56:25.177Z,7.00
2022-12-27T01:58:58.613Z,6.90
2022-12-27T02:01:30.765Z,6.80
2022-12-27T02:04:02.757Z,6.70
2022-12-27T02:06:32.259Z,6.60
2022-12-27T02:09:08.049Z,6.50
2022-12-27T02:11:52.473Z,6.40
2022-12-27T02:14:28.144Z,6.30
2022-12-27T02:16:58.373Z,6.20
2022-12-27T02:19:37.450Z,6.20
2022-12-27T02:22:56.289Z,6.10
2022-12-27T02:25:42.275Z,6.00
2022-12-27T02:28:26.479Z,5.90
2022-12-27T02:31:00.646Z,5.80
2022-12-27T02:33:34.139Z,5.80
2022-12-27T02:36:05.468Z,5.70
2022-12-27T02:38:37.218Z,5.70
2022-12-27T02:41:26.826Z,5.60
2022-12-27T02:44:14.008Z,5.60
2022-12-27T02:47:01.518Z,5.50
2022-12-27T02:49:50.089Z,5.50
2022-12-27T02:52:47.109Z,5.40
2022-12-27T02:55:31.446Z,5.40
2022-12-27T02:58:10.891Z,5.30
2022-12-27T03:01:05.177Z,5.20
2022-12-27T03:03:48.647Z,5.20
2022-12-27T03:06:42.189Z,5.20
2022-12-27T03:09:46.977Z,5.20
2022-12-27T03:12:43.142Z,5.10
2022-12-27T03:15:39.705Z,5.10
2022-12-27T03:18:11.703Z,5.10
2022-12-27T03:21:01.380Z,5.10
2022-12-27T03:23:47.588Z,5.10
2022-12-27T03:26:18.431Z,5.00
2022-12-27T03:29:05.292Z,5.00
2022-12-27T03:31:54.501Z,5.00
2022-12-27T03:34:38.261Z,5.00
2022-12-27T03:37:30.938Z,4.90
2022-12-27T03:40:08.206Z,4.90
2022-12-27T03:42:58.377Z,4.90
2022-12-27T03:45:47.483Z,4.80
2022-12-27T03:48:23.252Z,4.70
2022-12-27T03:50:55.808Z,4.70
2022-12-27T03:53:31.901Z,4.70
2022-12-27T03:56:00.239Z,4.70
2022-12-27T03:58:29.075Z,4.70
2022-12-27T04:00:57.117Z,4.70
2022-12-27T04:03:26.060Z,4.70
2022-12-27T04:05:54.123Z,4.70
2022-12-27T04:08:39.459Z,4.70
2022-12-27T04:11:26.523Z,4.60
2022-12-27T04:14:12.033Z,4.60
2022-12-27T04:16:57.872Z,4.50
2022-12-27T04:19:43.232Z,4.50
2022-12-27T04:22:28.929Z,4.40
2022-12-27T04:25:14.415Z,4.40
2022-12-27T04:28:01.198Z,4.30
2022-12-27T04:30:46.776Z,4.30
2022-12-27T04:33:32.238Z,4.20
2022-12-27T04:36:05.827Z,4.10
2022-12-27T04:38:34.434Z,4.00
2022-12-27T04:41:20.368Z,4.00
2022-12-27T04:44:07.527Z,4.00
2022-12-27T04:46:53.543Z,3.90
2022-12-27T04:49:42.001Z,3.80
2022-12-27T04:52:32.913Z,3.80
2022-12-27T04:55:06.771Z,3.70
2022-12-27T04:57:34.913Z,3.60
2022-12-27T05:00:23.719Z,3.60
2022-12-27T05:02:52.146Z,3.60
2022-12-27T05:05:20.488Z,3.50
2022-12-27T05:08:06.616Z,3.50
2022-12-27T05:11:00.489Z,3.50
2022-12-27T05:13:46.193Z,3.50
2022-12-27T05:16:16.095Z,3.40
2022-12-27T05:18:44.451Z,3.30
2022-12-27T05:21:12.432Z,3.20
2022-12-27T05:24:04.958Z,3.20
2022-12-27T05:26:34.439Z,3.10
2022-12-27T05:29:03.367Z,3.10
2022-12-27T05:31:33.682Z,3.00
2022-12-27T05:34:01.859Z,3.00
2022-12-27T05:36:30.042Z,3.00
2022-12-27T05:38:59.369Z,3.00
2022-12-27T05:41:27.394Z,3.00
2022-12-27T05:43:55.425Z,3.00
2022-12-27T05:46:23.588Z,2.90
2022-12-27T05:48:53.093Z,2.90
2022-12-27T05:51:22.454Z,2.90
2022-12-27T05:53:50.603Z,2.90
2022-12-27T05:56:21.619Z,2.90
2022-12-27T05:58:53.279Z,2.80
2022-12-27T06:01:21.678Z,2.80
2022-12-27T06:03:49.653Z,2.70
2022-12-27T06:06:19.125Z,2.70
2022-12-27T06:08:47.214Z,2.70
2022-12-27T06:11:17.875Z,2.70
2022-12-27T06:13:51.565Z,2.60
2022-12-27T06:16:20.825Z,2.60
2022-12-27T06:18:49.081Z,2.60
2022-12-27T06:21:20.873Z,2.50
2022-12-27T06:23:50.264Z,2.50
2022-12-27T06:26:20.974Z,2.50
2022-12-27T06:28:49.941Z,2.50
2022-12-27T06:31:19.145Z,2.50
2022-12-27T06:33:47.894Z,2.40
2022-12-27T06:36:18.783Z,2.40
2022-12-27T06:38:46.941Z,2.40
2022-12-27T06:41:17.228Z,2.40
2022-12-27T06:43:45.682Z,2.40
2022-12-27T06:46:17.539Z,2.40
2022-12-27T06:48:46.602Z,2.40
2022-12-27T06:51:16.208Z,2.40
2022-12-27T06:53:48.567Z,2.40
2022-12-27T06:56:19.051Z,2.40
2022-12-27T06:58:47.917Z,2.30
2022-12-27T07:01:18.640Z,2.30
2022-12-27T07:03:50.423Z,2.30
2022-12-27T07:06:19.009Z,2.30
2022-12-27T07:08:48.872Z,2.30
2022-12-27T07:11:17.818Z,2.20
2022-12-27T07:13:48.219Z,2.30
2022-12-27T07:16:18.944Z,2.30
2022-12-27T07:18:49.850Z,2.30
2022-12-27T07:21:20.483Z,2.20
2022-12-27T07:23:50.359Z,2.20
2022-12-27T07:26:20.279Z,2.10
2022-12-27T07:28:48.706Z,2.20
2022-12-27T07:31:18.242Z,2.20
2022-12-27T07:33:46.682Z,2.30
2022-12-27T07:36:18.017Z,2.40
2022-12-27T07:38:46.666Z,2.40
2022-12-27T07:41:16.588Z,2.40
2022-12-27T07:43:44.932Z,2.40
2022-12-27T07:46:15.554Z,2.30
2022-12-27T07:48:44.133Z,2.30
2022-12-27T07:51:13.368Z,2.30
2022-12-27T07:53:41.730Z,2.40
2022-12-27T07:56:11.104Z,2.40
2022-12-27T07:58:42.513Z,2.50
2022-12-27T08:01:11.783Z,2.60
2022-12-27T08:03:40.905Z,2.60
2022-12-27T08:06:17.792Z,2.70
2022-12-27T08:08:46.472Z,2.70
2022-12-27T08:11:14.766Z,2.80
2022-12-27T08:13:44.211Z,2.80
2022-12-27T08:16:18.240Z,2.90
2022-12-27T08:18:46.567Z,3.00
2022-12-27T08:21:14.954Z,3.00
2022-12-27T08:23:43.072Z,3.10
2022-12-27T08:26:11.585Z,3.10
2022-12-27T08:28:40.077Z,3.20
2022-12-27T08:31:11.172Z,3.20
2022-12-27T08:33:41.661Z,3.30
2022-12-27T08:36:45.202Z,3.30
2022-12-27T08:39:00.897Z,3.40
2022-12-27T08:41:29.260Z,3.50
2022-12-27T08:43:57.317Z,3.50
2022-12-27T08:46:26.856Z,3.60
2022-12-27T08:48:54.891Z,3.70
2022-12-27T08:51:31.645Z,3.80
2022-12-27T08:54:06.927Z,3.80
2022-12-27T08:56:35.113Z,3.90
2022-12-27T08:59:04.151Z,3.90
2022-12-27T09:01:33.882Z,4.00
2022-12-27T09:04:01.933Z,4.00
2022-12-27T09:06:29.977Z,4.10
2022-12-27T09:08:58.153Z,4.10
2022-12-27T09:11:27.743Z,4.10
2022-12-27T09:13:56.399Z,4.10
2022-12-27T09:16:27.514Z,4.20
2022-12-27T09:18:58.981Z,4.20
2022-12-27T09:21:29.712Z,4.30
2022-12-27T09:23:57.807Z,4.40
2022-12-27T09:26:29.136Z,4.40
2022-12-27T09:28:58.409Z,4.50
2022-12-27T09:31:27.140Z,4.60
2022-12-27T09:33:56.854Z,4.60
2022-12-27T09:36:27.124Z,4.60
2022-12-27T09:38:57.068Z,4.70
2022-12-27T09:42:43.792Z,4.70
2022-12-27T09:44:34.048Z,4.70
2022-12-27T09:47:07.002Z,4.60
2022-12-27T09:49:39.138Z,4.50
2022-12-27T09:52:13.621Z,4.50
2022-12-27T09:55:04.430Z,4.50
2022-12-27T09:57:37.914Z,4.40
2022-12-27T10:00:14.593Z,4.40
2022-12-27T10:02:44.427Z,4.40
2022-12-27T10:05:22.589Z,4.40
2022-12-27T10:08:11.546Z,4.40
2022-12-27T10:10:45.348Z,4.40
2022-12-27T10:13:28.054Z,4.40
2022-12-27T10:16:08.950Z,4.40
2022-12-27T10:18:45.907Z,4.50
2022-12-27T10:21:21.197Z,4.50
2022-12-27T10:23:55.876Z,4.50
2022-12-27T10:26:25.055Z,4.50
2022-12-27T10:28:57.696Z,4.50
2022-12-27T10:31:26.617Z,4.50
2022-12-27T10:33:55.255Z,4.60
2022-12-27T10:36:26.984Z,4.60
2022-12-27T10:38:55.981Z,4.70
2022-12-27T10:41:37.322Z,4.70
2022-12-27T10:44:11.741Z,4.70
2022-12-27T10:46:42.407Z,4.70
2022-12-27T10:49:24.536Z,4.80
2022-12-27T10:51:56.938Z,4.80
2022-12-27T10:54:26.666Z,4.80
2022-12-27T10:56:56.036Z,4.80
2022-12-27T10:59:25.961Z,4.80
2022-12-27T11:02:17.493Z,4.80
2022-12-27T11:05:00.416Z,4.80
2022-12-27T11:07:35.363Z,4.90
2022-12-27T11:10:15.339Z,4.90
2022-12-27T11:12:56.924Z,5.10
2022-12-27T11:15:25.472Z,5.20
2022-12-27T11:17:56.746Z,5.50
2022-12-27T11:20:28.997Z,5.70
2022-12-27T11:23:00.635Z,5.70
2022-12-27T11:25:30.283Z,5.90
2022-12-27T11:28:04.070Z,6.00
2022-12-27T11:30:35.430Z,6.00
2022-12-27T11:33:05.903Z,6.10
2022-12-27T11:35:46.607Z,6.30
2022-12-27T11:38:25.560Z,6.30
2022-12-27T11:41:00.851Z,6.40
2022-12-27T11:43:33.432Z,6.50
2022-12-27T11:46:04.239Z,6.60
2022-12-27T11:48:36.773Z,6.60
2022-12-27T11:51:31.014Z,6.70
2022-12-27T11:54:15.414Z,6.70
2022-12-27T11:56:46.225Z,6.70
2022-12-27T11:59:33.355Z,6.80
2022-12-27T12:02:18.999Z,6.80
2022-12-27T12:05:12.368Z,6.90
2022-12-27T12:08:04.013Z,6.90
2022-12-27T12:10:44.250Z,6.90
2022-12-27T12:13:46.593Z,6.90
2022-12-27T12:16:40.715Z,6.90
2022-12-27T12:19:30.207Z,7.00
2022-12-27T12:22:13.890Z,7.00
2022-12-27T12:25:15.698Z,7.00
2022-12-27T12:28:17.578Z,7.10
2022-12-27T12:31:12.163Z,7.00
2022-12-27T12:33:59.638Z,6.90
2022-12-27T12:36:56.236Z,7.00
2022-12-27T12:39:38.002Z,7.00
2022-12-27T12:42:20.487Z,7.00
2022-12-27T12:45:15.710Z,7.10
2022-12-27T12:48:19.865Z,7.10
2022-12-27T12:51:05.452Z,7.20
2022-12-27T12:53:53.071Z,7.30
2022-12-27T12:56:43.384Z,7.30
2022-12-27T12:59:27.948Z,7.40
2022-12-27T13:02:17.762Z,7.40
2022-12-27T13:05:04.089Z,7.50
2022-12-27T13:07:45.168Z,7.50
2022-12-27T13:10:53.933Z,7.60
2022-12-27T13:13:31.145Z,7.60
2022-12-27T13:16:13.724Z,7.50
2022-12-27T13:18:55.896Z,7.40
2022-12-27T13:21:38.392Z,7.30
2022-12-27T13:24:15.761Z,7.20
2022-12-27T13:26:52.065Z,7.20
2022-12-27T13:29:38.169Z,7.10
2022-12-27T13:32:14.464Z,7.10
2022-12-27T13:34:54.546Z,7.10
2022-12-27T13:37:31.996Z,7.10
2022-12-27T13:40:24.016Z,7.20
2022-12-27T13:43:16.440Z,7.30
2022-12-27T13:45:55.997Z,7.40
2022-12-27T13:48:56.102Z,7.50
2022-12-27T13:51:46.938Z,7.60
2022-12-27T13:54:46.595Z,7.70
2022-12-27T13:57:31.826Z,7.70
2022-12-27T14:00:15.208Z,7.70
2022-12-27T14:03:08.524Z,7.80
2022-12-27T14:06:23.563Z,7.80
2022-12-27T14:09:09.257Z,7.90
2022-12-27T14:11:49.396Z,7.90
2022-12-27T14:14:19.364Z,7.90
2022-12-27T14:16:59.725Z,7.80
2022-12-27T14:19:52.868Z,7.80
2022-12-27T14:22:42.807Z,7.80
2022-12-27T14:25:53.302Z,7.70
2022-12-27T14:28:59.692Z,7.60
2022-12-27T14:32:32.106Z,7.50
2022-12-27T14:35:23.455Z,7.30
2022-12-27T14:38:20.071Z,7.20
2022-12-27T14:41:18.573Z,7.10
2022-12-27T14:44:23.507Z,7.00
2022-12-27T14:47:28.957Z,7.00
2022-12-27T14:50:40.332Z,7.00
2022-12-27T14:53:51.690Z,7.00
2022-12-27T14:56:33.832Z,6.90
2022-12-27T14:59:25.716Z,6.80
2022-12-27T15:02:03.084Z,6.80
2022-12-27T15:04:53.957Z,6.70
2022-12-27T15:07:38.311Z,6.70
2022-12-27T15:10:16.393Z,6.70
2022-12-27T15:12:56.460Z,6.60
2022-12-27T15:15:40.287Z,6.60
2022-12-27T15:18:39.222Z,6.50
2022-12-27T15:21:41.293Z,6.50
2022-12-27T15:24:26.265Z,6.40
2022-12-27T15:27:04.460Z,6.40
2022-12-27T15:29:45.473Z,6.40
2022-12-27T15:32:26.073Z,6.20
2022-12-27T15:35:11.473Z,6.10
2022-12-27T15:37:55.775Z,6.10
2022-12-27T15:40:30.048Z,6.00
2022-12-27T15:43:05.511Z,5.90
2022-12-27T15:45:46.293Z,5.90
2022-12-27T15:48:37.979Z,5.80
2022-12-27T15:51:15.150Z,5.80
2022-12-27T15:54:17.234Z,5.70
2022-12-27T15:56:54.514Z,5.70
2022-12-27T15:59:45.542Z,5.60
2022-12-27T16:02:29.969Z,5.50
2022-12-27T16:05:03.201Z,5.40
2022-12-27T16:07:48.768Z,5.40
2022-12-27T16:10:47.865Z,5.40
2022-12-27T16:13:42.288Z,5.30
2022-12-27T16:16:40.079Z,5.20
2022-12-27T16:19:40.108Z,5.10
2022-12-27T16:22:26.113Z,5.00
2022-12-27T16:24:54.575Z,4.90
2022-12-27T16:27:30.164Z,4.80
2022-12-27T16:29:59.180Z,4.70
2022-12-27T16:32:29.171Z,4.70
2022-12-27T16:35:16.464Z,4.60
2022-12-27T16:37:52.905Z,4.60
2022-12-27T16:40:49.635Z,4.40
2022-12-27T16:43:45.796Z,4.30
2022-12-27T16:46:30.463Z,4.20
2022-12-27T16:49:33.179Z,4.10
2022-12-27T16:52:19.616Z,4.10
2022-12-27T16:54:55.709Z,4.00
2022-12-27T16:57:42.070Z,3.80
2022-12-27T17:00:36.634Z,3.70
2022-12-27T17:03:47.205Z,3.60
2022-12-27T17:06:53.667Z,3.60
2022-12-27T17:09:45.590Z,3.50
2022-12-27T17:12:24.548Z,3.50
2022-12-27T17:15:04.611Z,3.40
2022-12-27T17:17:33.031Z,3.40
2022-12-27T17:20:03.946Z,3.30
2022-12-27T17:22:35.368Z,3.30
2022-12-27T17:25:05.792Z,3.20
2022-12-27T17:27:53.954Z,3.10
2022-12-27T17:30:23.378Z,3.00
2022-12-27T17:33:15.421Z,3.00
2022-12-27T17:36:09.911Z,3.00
2022-12-27T17:38:50.924Z,2.90
2022-12-27T17:41:51.253Z,2.90
2022-12-27T17:44:39.710Z,2.90
2022-12-27T17:47:44.340Z,2.90
2022-12-27T17:50:17.604Z,2.80
2022-12-27T17:53:21.408Z,2.70
2022-12-27T17:56:19.608Z,2.60
2022-12-27T17:58:48.966Z,2.50
2022-12-27T18:01:17.346Z,2.50
2022-12-27T18:03:48.355Z,2.40
2022-12-27T18:06:20.085Z,2.40
2022-12-27T18:08:49.855Z,2.40
2022-12-27T18:11:23.442Z,2.30
2022-12-27T18:13:58.998Z,2.20
2022-12-27T18:16:34.529Z,2.20
2022-12-27T18:19:03.178Z,2.10
2022-12-27T18:21:32.071Z,2.00
2022-12-27T18:24:00.319Z,2.00
2022-12-27T18:26:38.912Z,2.00
2022-12-27T18:29:12.806Z,2.00
2022-12-27T18:31:49.188Z,1.90
2022-12-27T18:34:25.620Z,1.90
2022-12-27T18:36:59.887Z,1.90
2022-12-27T18:39:32.541Z,1.90
2022-12-27T18:42:03.625Z,1.80
2022-12-27T18:44:43.658Z,1.80
2022-12-27T18:47:18.800Z,1.70
2022-12-27T18:49:53.634Z,1.70
2022-12-27T18:52:25.650Z,1.70
2022-12-27T18:54:54.841Z,1.60
2022-12-27T18:57:36.384Z,1.60
2022-12-27T19:00:16.630Z,1.60
2022-12-27T19:02:45.074Z,1.60
2022-12-27T19:05:27.520Z,1.60
2022-12-27T19:08:00.739Z,1.50
2022-12-27T19:10:30.448Z,1.50
2022-12-27T19:12:59.027Z,1.40
2022-12-27T19:15:36.740Z,1.40
2022-12-27T19:18:07.983Z,1.40
2022-12-27T19:20:37.683Z,1.30
2022-12-27T19:23:08.689Z,1.30
2022-12-27T19:25:38.279Z,1.20
2022-12-27T19:28:25.608Z,1.20
2022-12-27T19:31:16.356Z,1.20
2022-12-27T19:33:47.527Z,1.10
2022-12-27T19:36:16.060Z,1.10
2022-12-27T19:38:48.045Z,1.10
2022-12-27T19:41:16.481Z,1.10
2022-12-27T19:43:46.744Z,1.00
2022-12-27T19:46:19.022Z,1.00
2022-12-27T19:49:01.085Z,1.00
2022-12-27T19:51:37.281Z,0.90
2022-12-27T19:54:08.220Z,0.90
2022-12-27T19:56:36.425Z,0.90
2022-12-27T19:59:04.523Z,0.90
2022-12-27T20:01:34.933Z,0.90
2022-12-27T20:04:03.080Z,0.90
2022-12-27T20:06:31.045Z,0.90
2022-12-27T20:08:59.141Z,0.80
2022-12-27T20:11:27.880Z,0.80
2022-12-27T20:13:56.018Z,0.80
2022-12-27T20:16:24.367Z,0.80
2022-12-27T20:18:53.865Z,0.80
2022-12-27T20:21:22.681Z,0.70
2022-12-27T20:23:51.242Z,0.80
2022-12-27T20:26:22.718Z,0.80
2022-12-27T20:28:51.358Z,0.80
2022-12-27T20:31:21.452Z,0.80
2022-12-27T20:33:54.150Z,0.80
2022-12-27T20:36:22.680Z,0.80
2022-12-27T20:38:51.381Z,0.80
2022-12-27T20:41:21.555Z,0.70
2022-12-27T20:43:54.287Z,0.70
2022-12-27T20:46:22.461Z,0.70
2022-12-27T20:48:50.744Z,0.70
2022-12-27T20:51:23.069Z,0.70
2022-12-27T20:53:56.626Z,0.70
2022-12-27T20:56:25.720Z,0.70
2022-12-27T20:58:54.299Z,0.60
2022-12-27T21:01:24.079Z,0.70
2022-12-27T21:03:52.696Z,0.60
2022-12-27T21:06:27.657Z,0.60
2022-12-27T21:08:58.003Z,0.60
2022-12-27T21:11:29.017Z,0.60
2022-12-27T21:13:57.228Z,0.60
2022-12-27T21:16:27.374Z,0.50
2022-12-27T21:18:56.153Z,0.50
2022-12-27T21:21:28.634Z,0.50
2022-12-27T21:23:57.949Z,0.50
2022-12-27T21:26:28.681Z,0.50
2022-12-27T21:28:57.579Z,0.50
2022-12-27T21:31:26.242Z,0.50
2022-12-27T21:33:54.723Z,0.50
2022-12-27T21:36:25.910Z,0.50
2022-12-27T21:38:55.559Z,0.40
2022-12-27T21:41:24.957Z,0.40
2022-12-27T21:43:53.792Z,0.40
2022-12-27T21:46:23.751Z,0.40
2022-12-27T21:48:56.690Z,0.30
2022-12-27T21:51:27.712Z,0.40
2022-12-27T21:53:56.527Z,0.30
2022-12-27T21:56:25.148Z,0.30
2022-12-27T21:58:55.457Z,0.30
2022-12-27T22:01:25.684Z,0.30
2022-12-27T22:03:55.839Z,0.20
2022-12-27T22:06:27.910Z,0.20
2022-12-27T22:08:59.007Z,0.20
2022-12-27T22:11:28.416Z,0.20
2022-12-27T22:13:57.150Z,0.20
2022-12-27T22:16:27.488Z,0.20
2022-12-27T22:18:56.920Z,0.20
2022-12-27T22:21:28.678Z,0.20
2022-12-27T22:23:58.838Z,0.20
2022-12-27T22:26:29.403Z,0.20
2022-12-27T22:28:57.924Z,0.10
2022-12-27T22:31:30.230Z,0.10
2022-12-27T22:33:58.958Z,0.10
2022-12-27T22:36:29.959Z,0.10
2022-12-27T22:38:59.326Z,0.10
2022-12-27T22:41:29.620Z,0.10
2022-12-27T22:44:00.122Z,0.20
2022-12-27T22:46:39.303Z,0.10
2022-12-27T22:49:17.890Z,0.10
2022-12-27T22:51:47.547Z,0.10
2022-12-27T22:54:15.781Z,0.10
2022-12-27T22:56:44.223Z,0.10
2022-12-27T22:59:14.582Z,0.10
2022-12-27T23:01:45.360Z,0.00
2022-12-27T23:04:14.987Z,0.00
2022-12-27T23:06:45.294Z,0.00
2022-12-27T23:09:15.131Z,0.00
2022-12-27T23:11:43.519Z,-0.10
2022-12-27T23:14:13.851Z,-0.10
2022-12-27T23:16:45.073Z,-0.10
2022-12-27T23:19:14.080Z,-0.10
2022-12-27T23:21:42.397Z,-0.10
2022-12-27T23:24:11.639Z,-0.20
2022-12-27T23:26:41.976Z,-0.20
2022-12-27T23:29:12.763Z,-0.10
2022-12-27T23:31:55.385Z,-0.20
2022-12-27T23:34:28.149Z,-0.20
2022-12-27T23:36:57.586Z,-0.20
2022-12-27T23:39:25.998Z,-0.20
2022-12-27T23:41:55.680Z,-0.20
2022-12-27T23:44:33.485Z,-0.20
2022-12-27T23:47:05.410Z,-0.20
2022-12-27T23:49:33.942Z,-0.20
2022-12-27T23:52:03.350Z,-0.30
2022-12-27T23:54:31.674Z,-0.30
2022-12-27T23:57:22.468Z,-0.30
2022-12-27T23:59:51.225Z,-0.30
